KCVO - Corvallis Muni A, Oregon
Updated: Fri, 13-Dec-2019 6:20pm PST
Fog, Overcast
Fog, Overcast
 Wind from W
Wind: W 3 mph , 6 km/h
Temperature: 43°F , 6°C
Dew Point: 41°F , 5°C
Humidity: 93%
Barometer: 30.05 inHg , 1017.6 hPa
Summary: Fog
Clouds: Overcast
Visibility: 1/2 mile , 0.8 km
Cloud details: Mostly Cloudy 1600 ft
Overcast 12000 ft
2019/12/14 02:20 KCVO 140220Z AUTO 26003KT 1/2SM FG BKN016 OVC120 06/05 A3005 RMK AO2 RVRNO